createdAt,value
2022-10-05T00:00:21.289Z,90.56
2022-10-05T00:01:21.588Z,90.66
2022-10-05T00:02:21.807Z,90.77
2022-10-05T00:03:22.105Z,90.77
2022-10-05T00:04:22.435Z,90.77
2022-10-05T00:05:22.813Z,90.77
2022-10-05T00:06:23.064Z,90.77
2022-10-05T00:07:23.333Z,90.77
2022-10-05T00:08:23.689Z,90.66
2022-10-05T00:09:24.001Z,90.46
2022-10-05T00:10:24.337Z,90.36
2022-10-05T00:11:24.638Z,90.25
2022-10-05T00:12:24.931Z,90.25
2022-10-05T00:13:25.293Z,90.36
2022-10-05T00:14:25.504Z,90.56
2022-10-05T00:15:25.843Z,90.56
2022-10-05T00:16:26.172Z,90.56
2022-10-05T00:17:26.343Z,90.56
2022-10-05T00:18:26.682Z,90.56
2022-10-05T00:19:27.176Z,90.46
2022-10-05T00:20:27.241Z,90.46
2022-10-05T00:21:27.609Z,90.36
2022-10-05T00:22:27.887Z,90.25
2022-10-05T00:23:28.202Z,90.25
2022-10-05T00:24:28.574Z,90.25
2022-10-05T00:25:28.816Z,90.25
2022-10-05T00:26:29.187Z,90.25
2022-10-05T00:27:29.489Z,90.05
2022-10-05T00:28:29.844Z,90.05
2022-10-05T00:29:30.145Z,90.05
2022-10-05T00:30:30.298Z,90.25
2022-10-05T00:31:30.639Z,90.25
2022-10-05T00:32:30.952Z,90.25
2022-10-05T00:33:31.269Z,90.16
2022-10-05T00:34:32.008Z,90.25
2022-10-05T00:35:31.855Z,90.25
2022-10-05T00:36:32.175Z,90.25
2022-10-05T00:37:32.495Z,90.25
2022-10-05T00:38:32.783Z,90.25
2022-10-05T00:39:33.098Z,90.25
2022-10-05T00:40:33.400Z,90.25
2022-10-05T00:41:33.718Z,90.16
2022-10-05T00:42:33.941Z,90.16
2022-10-05T00:43:34.269Z,90.25
2022-10-05T00:44:34.594Z,90.36
2022-10-05T00:45:34.992Z,90.56
2022-10-05T00:46:35.198Z,90.66
2022-10-05T00:47:35.504Z,90.77
2022-10-05T00:48:35.787Z,90.77
2022-10-05T00:49:36.164Z,90.86
2022-10-05T00:50:36.462Z,90.91
2022-10-05T00:51:37.298Z,91.11
2022-10-05T00:52:37.067Z,91.11
2022-10-05T00:53:37.357Z,91.11
2022-10-05T00:54:37.659Z,91.22
2022-10-05T00:55:37.920Z,91.52
2022-10-05T00:56:38.270Z,91.72
2022-10-05T00:57:38.555Z,91.83
2022-10-05T00:58:38.905Z,91.87
2022-10-05T00:59:39.182Z,92.18
2022-10-05T01:00:39.521Z,92.27
2022-10-05T01:01:39.918Z,92.38
2022-10-05T01:02:40.723Z,92.38
2022-10-05T01:03:40.430Z,92.38
2022-10-05T01:04:40.745Z,92.58
2022-10-05T01:05:41.096Z,92.68
2022-10-05T01:06:41.394Z,92.68
2022-10-05T01:07:41.702Z,92.68
2022-10-05T01:08:41.985Z,92.68
2022-10-05T01:09:42.304Z,92.79
2022-10-05T01:10:42.681Z,92.89
2022-10-05T01:11:43.032Z,92.89
2022-10-05T01:12:43.269Z,93.13
2022-10-05T01:13:43.542Z,93.13
2022-10-05T01:14:43.878Z,93.13
2022-10-05T01:15:44.169Z,93.03
2022-10-05T01:16:44.888Z,93.03
2022-10-05T01:17:44.888Z,93.03
2022-10-05T01:18:45.162Z,93.24
2022-10-05T01:19:45.309Z,93.13
2022-10-05T01:20:45.604Z,93.44
2022-10-05T01:21:45.897Z,93.64
2022-10-05T01:22:46.209Z,93.64
2022-10-05T01:23:46.592Z,93.44
2022-10-05T01:24:46.779Z,93.44
2022-10-05T01:25:47.090Z,93.54
2022-10-05T01:26:47.802Z,93.54
2022-10-05T01:27:47.742Z,93.54
2022-10-05T01:28:47.907Z,93.44
2022-10-05T01:29:48.310Z,93.64
2022-10-05T01:30:48.524Z,93.64
2022-10-05T01:31:48.876Z,93.64
2022-10-05T01:32:49.065Z,93.44
2022-10-05T01:33:49.321Z,93.33
2022-10-05T01:34:49.653Z,93.54
2022-10-05T01:35:49.977Z,93.44
2022-10-05T01:36:50.311Z,93.33
2022-10-05T01:37:50.579Z,93.33
2022-10-05T01:38:50.920Z,93.19
2022-10-05T01:39:51.202Z,93.09
2022-10-05T01:40:51.540Z,92.89
2022-10-05T01:41:51.870Z,92.89
2022-10-05T01:42:52.191Z,92.89
2022-10-05T01:43:52.478Z,92.89
2022-10-05T01:44:52.780Z,92.79
2022-10-05T01:45:53.109Z,92.68
2022-10-05T01:46:53.347Z,92.58
2022-10-05T01:47:53.674Z,92.79
2022-10-05T01:48:53.976Z,93.09
2022-10-05T01:49:54.284Z,92.89
2022-10-05T01:50:54.599Z,92.89
2022-10-05T01:51:54.816Z,92.89
2022-10-05T01:52:55.127Z,92.89
2022-10-05T01:53:55.479Z,92.99
2022-10-05T01:54:55.836Z,92.99
2022-10-05T01:55:55.990Z,92.89
2022-10-05T01:56:56.260Z,92.99
2022-10-05T01:57:56.541Z,93.09
2022-10-05T01:58:56.925Z,92.89
2022-10-05T01:59:58.103Z,93.24
2022-10-05T02:00:57.435Z,93.33
2022-10-05T02:01:57.858Z,93.29
2022-10-05T02:02:57.942Z,93.09
2022-10-05T02:03:58.338Z,93.44
2022-10-05T02:05:02.880Z,93.40
2022-10-05T02:05:58.943Z,93.19
2022-10-05T02:06:59.284Z,93.19
2022-10-05T02:07:59.597Z,93.29
2022-10-05T02:08:59.953Z,93.29
2022-10-05T02:10:00.248Z,93.29
2022-10-05T02:11:00.544Z,93.19
2022-10-05T02:12:00.926Z,93.24
2022-10-05T02:13:01.191Z,93.33
2022-10-05T02:14:01.372Z,93.40
2022-10-05T02:15:01.670Z,93.33
2022-10-05T02:16:02.033Z,93.54
2022-10-05T02:17:02.189Z,93.54
2022-10-05T02:18:02.534Z,93.64
2022-10-05T02:19:02.874Z,93.44
2022-10-05T02:20:03.178Z,93.64
2022-10-05T02:21:04.307Z,93.64
2022-10-05T02:22:03.761Z,93.64
2022-10-05T02:23:04.127Z,93.64
2022-10-05T02:24:04.387Z,93.64
2022-10-05T02:25:04.725Z,93.54
2022-10-05T02:26:05.072Z,93.74
2022-10-05T02:27:05.341Z,93.74
2022-10-05T02:28:05.779Z,93.74
2022-10-05T02:29:05.950Z,93.85
2022-10-05T02:30:06.280Z,93.85
2022-10-05T02:31:06.536Z,93.74
2022-10-05T02:32:06.760Z,93.85
2022-10-05T02:33:07.111Z,93.85
2022-10-05T02:34:07.397Z,93.85
2022-10-05T02:35:07.699Z,93.85
2022-10-05T02:36:08.048Z,93.85
2022-10-05T02:37:08.350Z,93.95
2022-10-05T02:38:08.675Z,93.95
2022-10-05T02:39:08.981Z,93.95
2022-10-05T02:40:09.269Z,93.95
2022-10-05T02:41:09.520Z,94.09
2022-10-05T02:42:09.791Z,94.20
2022-10-05T02:43:10.114Z,94.20
2022-10-05T02:44:10.401Z,94.20
2022-10-05T02:45:10.752Z,94.40
2022-10-05T02:46:11.136Z,94.40
2022-10-05T02:47:11.325Z,94.30
2022-10-05T02:48:11.688Z,94.20
2022-10-05T02:49:11.944Z,93.89
2022-10-05T02:50:12.149Z,93.79
2022-10-05T02:51:12.367Z,93.99
2022-10-05T02:52:12.684Z,94.20
2022-10-05T02:53:12.998Z,94.20
2022-10-05T02:54:13.353Z,94.30
2022-10-05T02:55:13.626Z,94.50
2022-10-05T02:56:14.010Z,94.60
2022-10-05T02:57:14.276Z,94.71
2022-10-05T02:58:14.596Z,94.81
2022-10-05T02:59:14.958Z,94.91
2022-10-05T03:00:15.267Z,94.91
2022-10-05T03:01:15.691Z,95.01
2022-10-05T03:02:15.897Z,95.26
2022-10-05T03:03:16.155Z,95.57
2022-10-05T03:04:16.378Z,95.87
2022-10-05T03:05:16.727Z,95.87
2022-10-05T03:06:17.036Z,95.77
2022-10-05T03:07:17.316Z,95.67
2022-10-05T03:08:17.519Z,95.77
2022-10-05T03:09:17.748Z,96.08
2022-10-05T03:10:18.022Z,96.08
2022-10-05T03:11:18.379Z,96.08
2022-10-05T03:12:18.668Z,96.08
2022-10-05T03:13:18.997Z,95.97
2022-10-05T03:14:19.310Z,95.97
2022-10-05T03:15:19.666Z,96.08
2022-10-05T03:16:19.995Z,95.97
2022-10-05T03:17:20.308Z,95.97
2022-10-05T03:18:20.515Z,95.97
2022-10-05T03:19:20.820Z,95.97
2022-10-05T03:20:21.099Z,96.08
2022-10-05T03:21:21.447Z,96.28
2022-10-05T03:22:21.749Z,96.28
2022-10-05T03:23:22.067Z,96.28
2022-10-05T03:24:22.339Z,96.28
2022-10-05T03:25:22.683Z,96.38
2022-10-05T03:26:23.011Z,96.28
2022-10-05T03:27:23.282Z,96.38
2022-10-05T03:28:24.208Z,96.38
2022-10-05T03:29:24.898Z,96.38
2022-10-05T03:30:24.282Z,96.43
2022-10-05T03:31:24.533Z,96.63
2022-10-05T03:32:24.849Z,96.73
2022-10-05T03:33:25.190Z,96.63
2022-10-05T03:34:25.365Z,96.63
2022-10-05T03:35:26.090Z,96.53
2022-10-05T03:36:25.976Z,96.63
2022-10-05T03:37:26.308Z,96.53
2022-10-05T03:38:26.607Z,96.63
2022-10-05T03:39:26.929Z,96.53
2022-10-05T03:40:27.297Z,96.73
2022-10-05T03:41:27.473Z,96.59
2022-10-05T03:42:27.754Z,96.38
2022-10-05T03:43:27.949Z,96.18
2022-10-05T03:44:28.341Z,96.08
2022-10-05T03:45:28.595Z,95.87
2022-10-05T03:46:28.855Z,95.97
2022-10-05T03:47:29.129Z,95.97
2022-10-05T03:48:29.444Z,96.33
2022-10-05T03:49:29.785Z,96.28
2022-10-05T03:50:30.170Z,96.53
2022-10-05T03:51:30.346Z,96.53
2022-10-05T03:52:30.665Z,96.63
2022-10-05T03:53:30.932Z,96.94
2022-10-05T03:54:31.277Z,97.04
2022-10-05T03:55:31.576Z,97.04
2022-10-05T03:56:31.801Z,97.04
2022-10-05T03:57:32.139Z,96.94
2022-10-05T03:58:32.443Z,96.84
2022-10-05T03:59:33.002Z,96.84
2022-10-05T04:00:33.025Z,96.84
2022-10-05T04:01:33.382Z,97.04
2022-10-05T04:02:33.775Z,97.14
2022-10-05T04:03:34.041Z,97.04
2022-10-05T04:04:34.231Z,97.14
2022-10-05T04:05:34.638Z,97.24
2022-10-05T04:06:34.828Z,97.24
2022-10-05T04:07:35.170Z,97.45
2022-10-05T04:08:35.394Z,97.55
2022-10-05T04:09:35.726Z,97.65
2022-10-05T04:10:35.948Z,97.65
2022-10-05T04:11:36.313Z,97.80
2022-10-05T04:12:36.539Z,97.90
2022-10-05T04:13:36.882Z,97.90
2022-10-05T04:14:37.205Z,97.90
2022-10-05T04:15:37.464Z,98.00
2022-10-05T04:16:37.758Z,97.96
2022-10-05T04:17:38.100Z,97.96
2022-10-05T04:18:38.412Z,97.75
2022-10-05T04:19:38.656Z,97.55
2022-10-05T04:20:38.980Z,97.45
2022-10-05T04:21:39.301Z,97.45
2022-10-05T04:22:39.571Z,97.24
2022-10-05T04:23:39.877Z,97.24
2022-10-05T04:24:40.102Z,97.45
2022-10-05T04:25:40.434Z,97.45
2022-10-05T04:26:40.672Z,97.65
2022-10-05T04:27:40.863Z,97.65
2022-10-05T04:28:41.215Z,97.75
2022-10-05T04:29:41.500Z,97.80
2022-10-05T04:30:42.686Z,97.86
2022-10-05T04:31:42.122Z,97.75
2022-10-05T04:32:42.384Z,97.86
2022-10-05T04:33:42.676Z,97.75
2022-10-05T04:34:43.018Z,97.75
2022-10-05T04:35:43.347Z,97.90
2022-10-05T04:36:43.845Z,97.75
2022-10-05T04:37:46.511Z,97.65
2022-10-05T04:38:44.501Z,97.75
2022-10-05T04:39:44.581Z,97.70
2022-10-05T04:40:44.900Z,97.70
2022-10-05T04:41:45.226Z,97.90
2022-10-05T04:42:45.549Z,97.90
2022-10-05T04:43:45.887Z,98.00
2022-10-05T04:44:46.229Z,98.11
2022-10-05T04:45:46.539Z,98.11
2022-10-05T04:46:47.090Z,98.00
2022-10-05T04:47:47.021Z,98.11
2022-10-05T04:48:47.372Z,98.11
2022-10-05T04:49:47.622Z,98.00
2022-10-05T04:50:48.215Z,98.00
2022-10-05T04:51:51.136Z,98.11
2022-10-05T04:52:48.609Z,97.90
2022-10-05T04:53:48.921Z,97.80
2022-10-05T04:54:49.246Z,98.00
2022-10-05T04:55:49.496Z,98.11
2022-10-05T04:56:50.181Z,98.41
2022-10-05T04:57:50.157Z,98.31
2022-10-05T04:58:50.484Z,98.31
2022-10-05T04:59:50.626Z,98.31
2022-10-05T05:00:50.943Z,98.41
2022-10-05T05:01:51.115Z,98.21
2022-10-05T05:02:51.425Z,98.00
2022-10-05T05:03:51.716Z,98.00
2022-10-05T05:04:52.299Z,98.11
2022-10-05T05:06:15.451Z,98.11
2022-10-05T05:06:53.547Z,98.46
2022-10-05T05:07:52.751Z,98.41
2022-10-05T05:08:52.993Z,98.56
2022-10-05T05:09:53.265Z,98.66
2022-10-05T05:10:53.630Z,98.66
2022-10-05T05:11:53.884Z,98.52
2022-10-05T05:12:54.333Z,98.56
2022-10-05T05:13:54.456Z,98.52
2022-10-05T05:14:54.885Z,98.66
2022-10-05T05:15:55.039Z,98.56
2022-10-05T05:16:55.251Z,98.66
2022-10-05T05:17:55.494Z,98.66
2022-10-05T05:18:55.904Z,98.66
2022-10-05T05:19:55.946Z,98.61
2022-10-05T05:20:56.343Z,98.61
2022-10-05T05:21:56.607Z,98.31
2022-10-05T05:22:56.884Z,98.11
2022-10-05T05:23:57.246Z,98.00
2022-10-05T05:24:57.460Z,98.00
2022-10-05T05:25:57.711Z,97.70
2022-10-05T05:26:57.971Z,97.80
2022-10-05T05:27:58.251Z,97.80
2022-10-05T05:28:58.489Z,97.70
2022-10-05T05:29:58.730Z,97.60
2022-10-05T05:30:59.044Z,97.70
2022-10-05T05:31:59.271Z,97.70
2022-10-05T05:32:59.635Z,97.60
2022-10-05T05:33:59.878Z,97.60
2022-10-05T05:35:00.033Z,97.60
2022-10-05T05:36:00.299Z,97.60
2022-10-05T05:37:00.604Z,97.49
2022-10-05T05:38:00.927Z,97.60
2022-10-05T05:39:01.070Z,97.49
2022-10-05T05:40:01.358Z,97.49
2022-10-05T05:41:01.644Z,97.60
2022-10-05T05:42:01.979Z,97.60
2022-10-05T05:43:02.185Z,97.60
2022-10-05T05:44:02.562Z,97.60
2022-10-05T05:45:02.822Z,97.39
2022-10-05T05:46:03.186Z,97.39
2022-10-05T05:47:04.755Z,97.49
2022-10-05T05:48:03.647Z,97.74
2022-10-05T05:49:04.858Z,98.05
2022-10-05T05:50:07.335Z,98.25
2022-10-05T05:51:04.537Z,98.00
2022-10-05T05:52:04.800Z,98.00
2022-10-05T05:53:05.040Z,97.80
2022-10-05T05:54:05.328Z,97.60
2022-10-05T05:55:05.747Z,97.60
2022-10-05T05:56:05.851Z,97.60
2022-10-05T05:57:06.179Z,97.64
2022-10-05T05:58:06.443Z,97.74
2022-10-05T05:59:06.667Z,97.85
2022-10-05T06:00:06.990Z,98.05
2022-10-05T06:01:16.284Z,98.25
2022-10-05T06:02:08.568Z,98.46
2022-10-05T06:03:07.894Z,98.46
2022-10-05T06:04:08.014Z,98.56
2022-10-05T06:05:08.271Z,98.46
2022-10-05T06:06:08.621Z,98.56
2022-10-05T06:07:08.859Z,98.77
2022-10-05T06:08:09.185Z,98.77
2022-10-05T06:09:09.458Z,98.77
2022-10-05T06:10:09.735Z,98.56
2022-10-05T06:11:10.016Z,98.56
2022-10-05T06:12:10.255Z,98.86
2022-10-05T06:13:10.548Z,98.77
2022-10-05T06:14:10.899Z,98.72
2022-10-05T06:15:11.110Z,98.52
2022-10-05T06:16:11.427Z,98.41
2022-10-05T06:17:11.697Z,98.00
2022-10-05T06:18:11.992Z,98.00
2022-10-05T06:19:12.215Z,97.80
2022-10-05T06:20:12.568Z,97.80
2022-10-05T06:21:12.850Z,97.80
2022-10-05T06:22:13.103Z,97.90
2022-10-05T06:23:13.497Z,98.15
2022-10-05T06:24:13.735Z,98.25
2022-10-05T06:25:13.976Z,98.46
2022-10-05T06:26:14.209Z,98.86
2022-10-05T06:27:14.520Z,98.97
2022-10-05T06:28:14.788Z,99.07
2022-10-05T06:29:15.047Z,99.07
2022-10-05T06:30:15.335Z,98.97
2022-10-05T06:31:15.641Z,98.86
2022-10-05T06:32:15.930Z,98.61
2022-10-05T06:33:16.141Z,98.61
2022-10-05T06:34:16.412Z,98.61
2022-10-05T06:35:16.645Z,98.56
2022-10-05T06:36:16.942Z,98.66
2022-10-05T06:37:17.285Z,98.97
2022-10-05T06:38:17.513Z,99.27
2022-10-05T06:39:17.769Z,99.48
2022-10-05T06:40:18.082Z,99.48
2022-10-05T06:41:18.296Z,99.38
2022-10-05T06:42:18.563Z,99.52
2022-10-05T06:43:18.845Z,99.73
2022-10-05T06:44:19.119Z,99.84
2022-10-05T06:45:19.414Z,99.99
2022-10-05T06:46:19.740Z,99.99
2022-10-05T06:47:19.988Z,99.99
2022-10-05T06:48:20.298Z,99.99
2022-10-05T06:49:20.599Z,99.93
2022-10-05T06:50:20.874Z,99.99
2022-10-05T06:51:21.192Z,99.99
2022-10-05T06:52:21.459Z,99.93
2022-10-05T06:53:21.761Z,99.99
2022-10-05T06:54:22.063Z,99.99
2022-10-05T06:55:22.407Z,99.99
2022-10-05T06:56:22.678Z,99.99
2022-10-05T06:57:22.961Z,99.99
2022-10-05T06:58:23.227Z,99.99
2022-10-05T06:59:23.612Z,99.99
2022-10-05T07:00:23.851Z,99.99
2022-10-05T07:01:24.200Z,99.99
2022-10-05T07:02:24.622Z,99.99
2022-10-05T07:03:24.690Z,99.99
2022-10-05T07:04:24.979Z,99.99
2022-10-05T07:05:25.218Z,99.99
2022-10-05T07:06:25.518Z,99.99
2022-10-05T07:07:25.794Z,99.99
2022-10-05T07:08:26.054Z,99.99
2022-10-05T07:09:26.310Z,99.99
2022-10-05T07:10:26.545Z,99.99
2022-10-05T07:11:26.816Z,99.99
2022-10-05T07:12:27.186Z,99.99
2022-10-05T07:13:27.392Z,99.68
2022-10-05T07:14:27.643Z,99.58
2022-10-05T07:15:27.902Z,99.79
2022-10-05T07:16:28.252Z,99.68
2022-10-05T07:17:28.553Z,99.58
2022-10-05T07:18:28.777Z,99.43
2022-10-05T07:19:29.060Z,98.93
2022-10-05T07:20:29.319Z,98.82
2022-10-05T07:21:29.600Z,98.61
2022-10-05T07:22:31.815Z,98.41
2022-10-05T07:23:30.220Z,98.31
2022-10-05T07:24:30.497Z,98.52
2022-10-05T07:25:30.763Z,98.47
2022-10-05T07:26:30.999Z,98.36
2022-10-05T07:27:32.215Z,97.86
2022-10-05T07:28:31.788Z,97.75
2022-10-05T07:29:31.892Z,97.65
2022-10-05T07:30:32.210Z,97.65
2022-10-05T07:31:32.441Z,97.71
2022-10-05T07:32:32.794Z,97.50
2022-10-05T07:33:33.044Z,97.09
2022-10-05T07:34:33.319Z,96.89
2022-10-05T07:35:33.589Z,96.54
2022-10-05T07:36:33.866Z,96.44
2022-10-05T07:37:34.162Z,96.03
2022-10-05T07:38:34.424Z,96.14
2022-10-05T07:39:58.599Z,96.03
2022-10-05T07:40:35.954Z,95.73
2022-10-05T07:41:35.848Z,96.14
2022-10-05T07:42:40.527Z,96.54
2022-10-05T07:43:57.864Z,96.75
2022-10-05T07:44:37.127Z,96.64
2022-10-05T07:45:36.369Z,96.19
2022-10-05T07:46:36.681Z,95.78
2022-10-05T07:47:36.957Z,95.58
2022-10-05T07:48:37.185Z,95.37
2022-10-05T07:49:37.564Z,95.13
2022-10-05T07:50:37.816Z,94.82
2022-10-05T07:51:38.099Z,94.62
2022-10-05T07:52:38.364Z,94.07
2022-10-05T07:53:38.659Z,93.86
2022-10-05T07:54:38.945Z,93.71
2022-10-05T07:55:39.261Z,93.21
2022-10-05T07:56:39.490Z,92.70
2022-10-05T07:57:39.753Z,92.45
2022-10-05T07:58:40.499Z,91.74
2022-10-05T07:59:40.447Z,91.60
2022-10-05T08:00:40.568Z,90.99
2022-10-05T08:01:40.923Z,90.44
2022-10-05T08:02:41.336Z,89.62
2022-10-05T08:03:41.490Z,89.52
2022-10-05T08:04:42.070Z,89.37
2022-10-05T08:05:42.035Z,88.87
2022-10-05T08:06:42.302Z,88.76
2022-10-05T08:07:42.549Z,88.42
2022-10-05T08:08:42.853Z,87.81
2022-10-05T08:09:43.199Z,87.26
2022-10-05T08:10:43.421Z,86.82
2022-10-05T08:11:44.154Z,86.16
2022-10-05T08:12:44.021Z,85.56
2022-10-05T08:13:44.374Z,84.81
2022-10-05T08:14:44.663Z,83.96
2022-10-05T08:15:44.968Z,83.04
2022-10-05T08:16:45.199Z,82.81
2022-10-05T08:17:45.456Z,82.16
2022-10-05T08:18:45.754Z,81.65
2022-10-05T08:19:46.028Z,81.11
2022-10-05T08:20:46.319Z,81.45
2022-10-05T08:21:46.909Z,82.06
2022-10-05T08:22:46.862Z,81.85
2022-10-05T08:23:47.114Z,81.65
2022-10-05T08:24:47.390Z,81.85
2022-10-05T08:25:47.640Z,81.96
2022-10-05T08:26:47.893Z,82.26
2022-10-05T08:27:48.195Z,82.16
2022-10-05T08:28:48.525Z,81.82
2022-10-05T08:29:48.775Z,81.51
2022-10-05T08:30:49.063Z,81.21
2022-10-05T08:31:49.920Z,81.55
2022-10-05T08:32:49.651Z,81.85
2022-10-05T08:33:49.919Z,82.26
2022-10-05T08:34:50.189Z,82.26
2022-10-05T08:35:50.441Z,82.02
2022-10-05T08:36:53.871Z,81.92
2022-10-05T08:37:51.051Z,81.41
2022-10-05T08:38:51.325Z,81.62
2022-10-05T08:39:51.548Z,81.48
2022-10-05T08:40:51.864Z,81.41
2022-10-05T08:41:52.116Z,81.48
2022-10-05T08:42:52.352Z,81.27
2022-10-05T08:43:52.604Z,81.27
2022-10-05T08:44:52.898Z,81.17
2022-10-05T08:45:53.164Z,81.17
2022-10-05T08:46:53.463Z,81.07
2022-10-05T08:47:53.695Z,81.27
2022-10-05T08:48:53.942Z,81.78
2022-10-05T08:49:54.262Z,82.12
2022-10-05T08:50:54.520Z,82.42
2022-10-05T08:51:54.777Z,82.53
2022-10-05T08:52:55.054Z,82.22
2022-10-05T08:53:55.314Z,82.08
2022-10-05T08:54:55.617Z,82.28
2022-10-05T08:55:55.841Z,82.08
2022-10-05T08:56:56.080Z,81.88
2022-10-05T08:57:56.406Z,82.08
2022-10-05T08:58:56.664Z,82.18
2022-10-05T08:59:56.868Z,82.39
2022-10-05T09:00:57.144Z,82.49
2022-10-05T09:01:57.502Z,82.49
2022-10-05T09:02:57.791Z,82.39
2022-10-05T09:03:57.967Z,82.79
2022-10-05T09:04:58.250Z,82.49
2022-10-05T09:05:58.514Z,82.59
2022-10-05T09:06:58.743Z,82.49
2022-10-05T09:07:58.985Z,81.94
2022-10-05T09:08:59.295Z,82.14
2022-10-05T09:10:01.904Z,81.84
2022-10-05T09:10:59.847Z,81.94
2022-10-05T09:12:00.107Z,81.64
2022-10-05T09:13:00.438Z,81.64
2022-10-05T09:14:00.704Z,81.23
2022-10-05T09:15:24.457Z,81.44
2022-10-05T09:16:02.238Z,81.13
2022-10-05T09:17:01.467Z,81.34
2022-10-05T09:18:01.748Z,81.10
2022-10-05T09:19:01.964Z,81.23
2022-10-05T09:20:02.251Z,81.23
2022-10-05T09:21:02.512Z,81.23
2022-10-05T09:22:02.793Z,81.44
2022-10-05T09:23:03.081Z,81.34
2022-10-05T09:24:03.371Z,80.99
2022-10-05T09:25:03.640Z,81.30
2022-10-05T09:26:03.898Z,80.99
2022-10-05T09:27:04.184Z,80.69
2022-10-05T09:28:04.495Z,80.49
2022-10-05T09:29:04.776Z,80.45
2022-10-05T09:30:05.015Z,79.94
2022-10-05T09:31:05.326Z,79.85
2022-10-05T09:32:05.539Z,79.30
2022-10-05T09:33:05.825Z,79.10
2022-10-05T09:34:06.183Z,78.90
2022-10-05T09:35:06.391Z,78.86
2022-10-05T09:36:06.669Z,77.86
2022-10-05T09:37:06.940Z,77.42
2022-10-05T09:38:07.205Z,77.62
2022-10-05T09:39:07.508Z,77.82
2022-10-05T09:40:07.737Z,78.26
2022-10-05T09:41:08.016Z,78.90
2022-10-05T09:42:08.272Z,79.44
2022-10-05T09:43:08.534Z,80.05
2022-10-05T09:44:08.861Z,80.05
2022-10-05T09:45:09.095Z,80.35
2022-10-05T09:46:09.370Z,79.91
2022-10-05T09:47:09.634Z,79.61
2022-10-05T09:48:09.903Z,79.00
2022-10-05T09:49:10.177Z,78.90
2022-10-05T09:50:10.526Z,78.70
2022-10-05T09:51:11.188Z,79.00
2022-10-05T09:52:13.975Z,79.10
2022-10-05T09:53:12.279Z,78.80
2022-10-05T09:54:11.580Z,78.59
2022-10-05T09:55:11.857Z,78.59
2022-10-05T09:56:12.111Z,78.59
2022-10-05T09:57:12.414Z,78.70
2022-10-05T09:58:12.630Z,78.46
2022-10-05T09:59:12.886Z,77.95
2022-10-05T10:00:13.196Z,77.51
2022-10-05T10:01:32.735Z,77.51
2022-10-05T10:02:14.833Z,77.01
2022-10-05T10:03:14.121Z,76.81
2022-10-05T10:04:14.478Z,76.97
2022-10-05T10:05:14.738Z,76.57
2022-10-05T10:06:15.065Z,75.83
2022-10-05T10:07:15.299Z,75.53
2022-10-05T10:08:15.560Z,74.89
2022-10-05T10:09:15.808Z,74.79
2022-10-05T10:10:16.070Z,74.35
2022-10-05T10:11:16.273Z,73.31
2022-10-05T10:12:16.563Z,72.27
2022-10-05T10:13:16.856Z,71.83
2022-10-05T10:14:17.134Z,71.83
2022-10-05T10:15:17.373Z,72.07
2022-10-05T10:16:17.709Z,71.97
2022-10-05T10:17:17.932Z,71.73
2022-10-05T10:18:18.229Z,71.20
2022-10-05T10:19:18.492Z,70.16
2022-10-05T10:20:18.745Z,68.82
2022-10-05T10:21:19.029Z,67.45
2022-10-05T10:22:19.256Z,66.62
2022-10-05T10:23:19.497Z,66.28
2022-10-05T10:24:19.754Z,65.99
2022-10-05T10:25:20.005Z,65.25
2022-10-05T10:26:20.223Z,64.12
2022-10-05T10:27:20.504Z,64.45
2022-10-05T10:28:20.799Z,64.12
2022-10-05T10:29:21.082Z,62.96
2022-10-05T10:30:22.474Z,61.08
2022-10-05T10:31:21.705Z,58.37
2022-10-05T10:32:21.906Z,56.87
2022-10-05T10:33:22.204Z,54.95
2022-10-05T10:34:22.455Z,54.00
2022-10-05T10:35:23.247Z,53.19
2022-10-05T10:36:23.064Z,52.34
2022-10-05T10:37:23.405Z,51.42
2022-10-05T10:38:23.717Z,50.48
2022-10-05T10:39:23.919Z,49.79
2022-10-05T10:40:24.172Z,49.57
2022-10-05T10:41:24.428Z,48.55
2022-10-05T10:42:26.154Z,48.43
2022-10-05T10:43:24.955Z,48.43
2022-10-05T10:44:25.202Z,48.36
2022-10-05T10:45:25.461Z,49.47
2022-10-05T10:46:25.800Z,48.43
2022-10-05T10:47:26.064Z,48.85
2022-10-05T10:48:26.480Z,48.63
2022-10-05T10:49:26.588Z,47.77
2022-10-05T10:50:26.841Z,46.64
2022-10-05T10:51:27.162Z,46.26
2022-10-05T10:52:27.450Z,46.25
2022-10-05T10:53:27.735Z,46.15
2022-10-05T10:54:27.992Z,46.25
2022-10-05T10:55:28.277Z,46.25
2022-10-05T10:56:28.546Z,46.76
2022-10-05T10:57:28.823Z,46.03
2022-10-05T10:59:31.643Z,46.17
2022-10-05T11:00:29.762Z,47.72
2022-10-05T11:01:30.035Z,49.05
2022-10-05T11:02:30.347Z,49.15
2022-10-05T11:03:30.632Z,49.13
2022-10-05T11:04:31.318Z,49.02
2022-10-05T11:05:31.773Z,49.74
2022-10-05T11:06:37.272Z,49.54
2022-10-05T11:07:31.762Z,49.54
2022-10-05T11:08:32.030Z,49.74
2022-10-05T11:09:32.339Z,49.54
2022-10-05T11:10:32.616Z,49.32
2022-10-05T11:11:32.897Z,49.20
2022-10-05T11:12:34.678Z,48.43
2022-10-05T11:13:33.453Z,49.52
2022-10-05T11:14:33.679Z,49.52
2022-10-05T11:15:34.115Z,49.64
2022-10-05T11:16:34.267Z,49.52
2022-10-05T11:17:34.479Z,49.52
2022-10-05T11:18:34.784Z,49.74
2022-10-05T11:19:40.622Z,49.40
2022-10-05T11:20:36.329Z,48.78
2022-10-05T11:21:35.598Z,48.28
2022-10-05T11:22:35.943Z,48.93
2022-10-05T11:23:38.940Z,49.42
2022-10-05T11:24:36.533Z,48.61
2022-10-05T11:25:36.798Z,49.42
2022-10-05T11:26:37.096Z,48.51
2022-10-05T11:27:37.467Z,48.41
2022-10-05T11:28:37.750Z,48.71
2022-10-05T11:29:37.991Z,49.54
2022-10-05T11:30:38.280Z,49.84
2022-10-05T11:31:38.731Z,49.30
2022-10-05T11:32:38.868Z,48.07
2022-10-05T11:33:39.163Z,46.72
2022-10-05T11:34:39.426Z,46.84
2022-10-05T11:35:39.661Z,47.28
2022-10-05T11:36:39.907Z,49.72
2022-10-05T11:37:40.213Z,49.64
2022-10-05T11:38:40.409Z,50.38
2022-10-05T11:39:40.773Z,51.18
2022-10-05T11:40:41.041Z,50.98
2022-10-05T11:41:41.307Z,49.74
2022-10-05T11:42:41.646Z,49.82
2022-10-05T11:43:41.923Z,49.01
2022-10-05T11:44:42.143Z,48.88
2022-10-05T11:45:42.448Z,48.28
2022-10-05T11:46:42.735Z,48.51
2022-10-05T11:47:42.991Z,49.42
2022-10-05T11:48:43.217Z,50.13
2022-10-05T11:49:43.969Z,49.72
2022-10-05T11:50:43.792Z,48.71
2022-10-05T11:51:44.124Z,48.71
2022-10-05T11:52:44.340Z,49.52
2022-10-05T11:53:44.592Z,49.82
2022-10-05T11:55:09.396Z,49.52
2022-10-05T11:55:46.164Z,49.42
2022-10-05T11:56:49.488Z,48.71
2022-10-05T11:57:46.835Z,49.10
2022-10-05T11:58:46.013Z,50.36
2022-10-05T11:59:46.506Z,50.24
2022-10-05T12:00:46.552Z,49.32
2022-10-05T12:01:46.849Z,49.42
2022-10-05T12:02:47.209Z,48.88
2022-10-05T12:03:47.386Z,47.97
2022-10-05T12:04:47.615Z,48.14
2022-10-05T12:05:47.853Z,47.01
2022-10-05T12:06:48.310Z,46.54
2022-10-05T12:07:48.374Z,47.65
2022-10-05T12:08:48.615Z,48.07
2022-10-05T12:09:48.860Z,48.07
2022-10-05T12:10:49.104Z,48.90
2022-10-05T12:11:49.381Z,48.61
2022-10-05T12:12:49.623Z,49.02
2022-10-05T12:13:49.878Z,49.13
2022-10-05T12:14:50.179Z,49.44
2022-10-05T12:15:50.447Z,49.54
2022-10-05T12:16:50.685Z,49.52
2022-10-05T12:17:51.000Z,49.01
2022-10-05T12:18:51.199Z,48.83
2022-10-05T12:19:51.472Z,49.01
2022-10-05T12:20:51.768Z,48.39
2022-10-05T12:21:52.050Z,47.87
2022-10-05T12:22:52.346Z,47.25
2022-10-05T12:23:52.559Z,46.20
2022-10-05T12:24:52.818Z,45.88
2022-10-05T12:25:53.104Z,45.21
2022-10-05T12:26:53.361Z,46.64
2022-10-05T12:27:53.697Z,46.54
2022-10-05T12:28:53.916Z,46.84
2022-10-05T12:29:54.238Z,47.28
2022-10-05T12:30:54.610Z,47.57
2022-10-05T12:31:54.733Z,47.57
2022-10-05T12:33:00.935Z,48.28
2022-10-05T12:33:56.293Z,48.31
2022-10-05T12:35:01.514Z,49.01
2022-10-05T12:35:56.829Z,48.49
2022-10-05T12:37:04.380Z,48.19
2022-10-05T12:37:57.349Z,48.07
2022-10-05T12:38:56.639Z,49.32
2022-10-05T12:39:56.945Z,50.13
2022-10-05T12:40:57.234Z,49.62
2022-10-05T12:41:57.466Z,49.40
2022-10-05T12:42:57.704Z,48.88
2022-10-05T12:43:57.995Z,47.75
2022-10-05T12:44:58.299Z,47.13
2022-10-05T12:45:58.535Z,46.81
2022-10-05T12:46:58.767Z,46.62
2022-10-05T12:47:59.044Z,46.94
2022-10-05T12:48:59.357Z,47.23
2022-10-05T12:49:59.581Z,47.35
2022-10-05T12:50:59.892Z,47.43
2022-10-05T12:52:00.177Z,47.21
2022-10-05T12:53:00.420Z,47.65
2022-10-05T12:54:00.682Z,48.27
2022-10-05T12:55:00.946Z,47.85
2022-10-05T12:56:01.207Z,47.65
2022-10-05T12:57:01.551Z,47.01